Time;durP1;ratioP1;P1;durP2;ratioP2;P2;SDS_P1;SDS_P2;PMS_P1;PMS_P2;Temp;Humidity;BMP_temperature;BMP_pressure;BME280_temperature;BME280_humidity;BME280_pressure;Samples;Min_cycle;Max_cycle;Signal;HPM_P1;HPM_P2
2022/05/14 00:01:26;;;;;;;6.83;6.33;;;;;;;22.80;42.98;94455.25;4797906;29;20479;-79
2022/05/14 00:03:52;;;;;;;8.90;6.17;;;;;;;22.78;42.85;94450.22;4789756;29;20440;-79
2022/05/14 00:06:20;;;;;;;7.93;7.03;;;;;;;22.81;43.09;94457.66;4799866;29;20477;-78
2022/05/14 00:08:47;;;;;;;8.33;7.53;;;;;;;22.84;42.89;94447.50;4796802;29;20615;-78
2022/05/14 00:13:57;;;;;;;9.00;8.13;;;;;;;22.94;42.82;94447.44;4798914;29;20461;-79
2022/05/14 00:16:24;;;;;;;9.63;7.00;;;;;;;23.26;41.91;94443.50;4791929;29;20521;-78
2022/05/14 00:18:51;;;;;;;8.60;8.00;;;;;;;22.76;43.28;94447.00;4788159;29;20217;-79
2022/05/14 00:21:17;;;;;;;7.60;6.90;;;;;;;22.76;43.15;94439.00;4819534;29;20478;-78
2022/05/14 00:23:43;;;;;;;9.20;7.70;;;;;;;22.67;43.43;94448.66;4797993;29;20486;-79
2022/05/14 00:26:09;;;;;;;9.00;8.13;;;;;;;22.64;43.63;94446.53;4802000;29;20186;-78
2022/05/14 00:28:34;;;;;;;10.03;8.30;;;;;;;22.70;43.34;94437.44;4800803;29;20189;-78
2022/05/14 00:31:00;;;;;;;8.33;7.63;;;;;;;22.80;43.44;94441.91;4801794;29;20189;-78
2022/05/14 00:33:25;;;;;;;8.60;7.77;;;;;;;22.92;43.30;94438.91;4794898;29;20197;-79
2022/05/14 00:35:51;;;;;;;9.33;8.00;;;;;;;22.72;43.47;94431.81;4801609;29;20185;-78
2022/05/14 00:38:17;;;;;;;8.63;7.90;;;;;;;22.65;44.17;94439.31;4808604;29;20202;-78
2022/05/14 00:40:47;;;;;;;7.20;6.70;;;;;;;22.56;44.14;94437.25;4784620;29;20353;-79
2022/05/14 00:43:14;;;;;;;8.83;8.13;;;;;;;22.52;44.88;94435.38;4782852;29;20294;-79
2022/05/14 00:45:47;;;;;;;8.70;8.00;;;;;;;22.67;43.92;94440.66;4784694;29;20471;-78
2022/05/14 00:48:13;;;;;;;8.37;7.63;;;;;;;22.62;44.19;94435.34;4801378;30;20488;-78
2022/05/14 00:50:44;;;;;;;8.70;8.00;;;;;;;22.49;44.29;94433.28;4795911;29;20969;-79
2022/05/14 00:53:17;;;;;;;8.97;8.07;;;;;;;22.55;44.40;94434.84;4802619;29;20201;-78
2022/05/14 00:55:46;;;;;;;8.87;8.10;;;;;;;22.51;44.38;94428.47;4797313;29;20488;-78
2022/05/14 00:58:23;;;;;;;9.27;8.47;;;;;;;22.63;44.52;94436.94;4789878;29;20432;-79
2022/05/14 01:00:48;;;;;;;8.33;7.57;;;;;;;22.54;44.43;94430.59;4798803;29;20475;-78
2022/05/14 01:03:14;;;;;;;8.80;8.10;;;;;;;22.36;45.14;94432.78;4788393;29;20471;-78
2022/05/14 01:05:39;;;;;;;9.20;8.40;;;;;;;22.33;45.13;94432.53;4782694;30;20201;-79
2022/05/14 01:08:05;;;;;;;9.20;8.40;;;;;;;22.32;45.09;94437.06;4783768;29;20194;-79
2022/05/14 01:10:40;;;;;;;9.33;8.40;;;;;;;22.28;45.23;94436.03;4788199;30;20205;-78
2022/05/14 01:13:05;;;;;;;8.73;8.13;;;;;;;22.24;45.25;94432.28;4784595;30;20204;-79
2022/05/14 01:16:01;;;;;;;8.87;7.97;;;;;;;22.33;45.48;94436.03;4801313;30;20456;-78
2022/05/14 01:18:29;;;;;;;8.97;8.27;;;;;;;22.22;45.44;94431.78;4772012;30;20536;-79
2022/05/14 01:20:57;;;;;;;8.13;7.53;;;;;;;21.88;46.47;94432.41;4782603;29;20480;-79
2022/05/14 01:26:36;;;;;;;10.53;9.10;;;;;;;22.03;45.85;94429.69;4798317;29;20612;-78
2022/05/14 01:29:03;;;;;;;11.50;9.70;;;;;;;22.01;46.69;94431.84;4801604;30;20936;-79
2022/05/14 01:31:30;;;;;;;9.93;8.47;;;;;;;21.77;46.92;94425.50;4784545;29;20810;-79
2022/05/14 01:33:59;;;;;;;8.80;7.90;;;;;;;21.90;46.59;94427.59;4782807;29;20470;-78
2022/05/14 01:36:25;;;;;;;9.30;8.53;;;;;;;21.89;46.53;94423.31;4797508;30;20908;-79
2022/05/14 01:38:51;;;;;;;11.20;9.03;;;;;;;21.86;46.63;94423.88;4792283;29;20433;-78
2022/05/14 01:41:16;;;;;;;9.67;8.77;;;;;;;21.78;46.79;94419.91;4781255;30;20301;-78
2022/05/14 01:43:41;;;;;;;8.93;7.97;;;;;;;22.05;46.27;94417.97;4782872;29;20248;-78
2022/05/14 01:46:07;;;;;;;9.40;8.50;;;;;;;21.73;46.70;94419.13;4800527;29;20208;-79
2022/05/14 01:48:33;;;;;;;8.97;8.03;;;;;;;21.94;46.80;94409.22;4783445;29;20226;-78
2022/05/14 01:50:58;;;;;;;9.40;8.50;;;;;;;21.92;46.64;94406.03;4784348;30;20288;-79
2022/05/14 01:53:24;;;;;;;10.10;8.60;;;;;;;21.85;46.76;94403.63;4800296;29;20208;-78
2022/05/14 01:55:49;;;;;;;10.93;8.17;;;;;;;21.61;47.34;94406.88;4780068;30;20272;-79
2022/05/14 02:00:59;;;;;;;10.13;9.23;;;;;;;21.33;48.24;94410.88;4792847;29;20312;-79
2022/05/14 02:03:24;;;;;;;9.83;8.37;;;;;;;21.76;46.96;94408.72;4800948;30;20466;-78
2022/05/14 02:05:50;;;;;;;10.37;9.50;;;;;;;21.43;48.28;94410.06;4799819;29;20280;-79
2022/05/14 02:08:15;;;;;;;9.70;8.90;;;;;;;21.36;48.21;94409.53;4800558;29;20193;-78
2022/05/14 02:10:41;;;;;;;9.73;8.60;;;;;;;21.41;47.86;94404.22;4784919;29;20185;-79
2022/05/14 02:13:06;;;;;;;9.10;8.27;;;;;;;21.41;47.73;94406.88;4794126;29;20281;-78
2022/05/14 02:15:32;;;;;;;9.43;8.70;;;;;;;20.67;49.80;94411.63;4795714;30;20189;-79
2022/05/14 02:17:57;;;;;;;10.03;8.80;;;;;;;21.14;48.71;94415.94;4800731;29;20652;-77
2022/05/14 02:20:24;;;;;;;9.70;8.83;;;;;;;21.33;48.47;94413.56;4798262;29;20273;-78
2022/05/14 02:22:51;;;;;;;10.10;8.53;;;;;;;21.31;47.99;94409.56;4778537;30;20251;-79
2022/05/14 02:25:19;;;;;;;9.23;8.53;;;;;;;21.17;48.57;94412.78;4782139;29;20841;-78
2022/05/14 02:27:45;;;;;;;10.07;8.67;;;;;;;20.94;49.22;94414.06;4766275;30;20443;-78
2022/05/14 02:30:12;;;;;;;12.43;8.40;;;;;;;20.97;48.82;94412.75;4771411;30;20500;-79
2022/05/14 02:32:38;;;;;;;11.30;8.93;;;;;;;20.99;48.87;94414.06;4781091;30;20521;-78
2022/05/14 02:35:05;;;;;;;10.37;9.37;;;;;;;20.95;48.58;94412.22;4788346;29;20460;-78
2022/05/14 02:37:31;;;;;;;8.83;8.13;;;;;;;20.96;47.99;94416.47;4782838;30;20249;-78
2022/05/14 02:39:56;;;;;;;10.23;8.53;;;;;;;20.93;48.46;94401.84;4795227;29;20463;-78
2022/05/14 02:42:22;;;;;;;9.47;8.67;;;;;;;20.57;49.38;94411.59;4800211;29;20470;-79
2022/05/14 02:44:48;;;;;;;11.10;9.40;;;;;;;20.84;49.08;94401.56;4801049;29;20202;-78
2022/05/14 02:47:13;;;;;;;8.83;8.23;;;;;;;20.91;48.56;94400.53;4793171;29;20198;-78
2022/05/14 02:49:39;;;;;;;9.63;8.90;;;;;;;20.72;48.92;94410.88;4782978;30;20186;-79
2022/05/14 02:52:05;;;;;;;9.47;8.63;;;;;;;20.65;49.29;94413.78;4765900;30;20202;-79
2022/05/14 02:54:31;;;;;;;10.10;9.10;;;;;;;20.89;48.78;94410.59;4793395;30;20465;-78
2022/05/14 02:56:57;;;;;;;13.67;8.90;;;;;;;20.75;49.18;94411.13;4788917;29;20240;-78
2022/05/14 02:59:22;;;;;;;8.73;7.83;;;;;;;20.79;49.01;94417.53;4782949;29;20427;-78
2022/05/14 03:01:48;;;;;;;9.70;8.40;;;;;;;20.89;48.91;94416.75;4784039;30;20209;-78
2022/05/14 03:04:19;;;;;;;10.23;8.83;;;;;;;20.58;49.68;94419.31;4796445;29;20730;-79
2022/05/14 03:06:44;;;;;;;14.20;8.60;;;;;;;20.97;48.80;94412.75;4776150;30;20299;-78
2022/05/14 03:09:10;;;;;;;9.30;8.53;;;;;;;21.01;48.79;94413.81;4791591;29;20464;-79
2022/05/14 03:11:35;;;;;;;9.67;8.50;;;;;;;20.98;48.95;94420.47;4782267;30;20209;-78
2022/05/14 03:14:01;;;;;;;10.57;9.43;;;;;;;20.91;49.37;94425.25;4789161;29;20201;-78
2022/05/14 03:16:26;;;;;;;11.97;10.33;;;;;;;21.00;49.01;94420.19;4780268;30;20210;-78
2022/05/14 03:18:52;;;;;;;13.70;9.90;;;;;;;20.98;49.25;94422.31;4770288;30;20430;-79
2022/05/14 03:21:17;;;;;;;11.37;10.47;;;;;;;21.32;48.40;94422.59;4781231;29;20309;-78
2022/05/14 03:23:43;;;;;;;10.40;9.30;;;;;;;21.18;49.15;94418.88;4782304;30;20214;-78
2022/05/14 03:26:08;;;;;;;11.40;10.30;;;;;;;21.04;49.11;94418.63;4799568;29;20197;-78
2022/05/14 03:28:33;;;;;;;15.80;9.93;;;;;;;21.02;49.21;94424.19;4798746;30;20527;-78
2022/05/14 03:30:59;;;;;;;12.60;9.90;;;;;;;21.15;49.06;94417.56;4787334;29;20263;-79
2022/05/14 03:33:25;;;;;;;13.60;10.83;;;;;;;21.34;48.50;94423.16;4792804;30;20217;-78
2022/05/14 03:35:50;;;;;;;12.30;10.50;;;;;;;21.14;48.95;94413.28;4802871;29;20222;-78
2022/05/14 03:38:16;;;;;;;14.40;10.20;;;;;;;21.18;49.08;94425.00;4801027;29;20198;-78
2022/05/14 03:40:41;;;;;;;11.07;10.03;;;;;;;21.23;48.77;94427.66;4785322;30;20637;-79
2022/05/14 03:43:06;;;;;;;14.63;12.80;;;;;;;21.20;49.38;94428.19;4790491;29;20280;-79
2022/05/14 03:45:32;;;;;;;12.00;10.90;;;;;;;20.85;49.95;94427.09;4803139;29;20389;-79
2022/05/14 03:47:57;;;;;;;14.37;11.10;;;;;;;20.94;50.03;94429.22;4790920;29;20202;-79
2022/05/14 03:50:23;;;;;;;14.43;10.70;;;;;;;21.17;49.61;94430.56;4784808;30;20975;-78
2022/05/14 03:52:48;;;;;;;16.73;11.23;;;;;;;21.27;49.02;94433.25;4772985;30;20209;-78
2022/05/14 03:55:14;;;;;;;13.67;11.17;;;;;;;21.23;48.92;94440.97;4786541;29;20189;-78
2022/05/14 03:57:39;;;;;;;15.27;11.57;;;;;;;21.66;48.04;94426.59;4802752;29;20681;-79
2022/05/14 04:00:07;;;;;;;10.70;9.70;;;;;;;21.44;47.91;94435.69;4801128;29;20289;-79
2022/05/14 04:02:34;;;;;;;11.43;10.53;;;;;;;21.12;48.48;94434.03;4802099;29;20194;-79
2022/05/14 04:04:59;;;;;;;10.60;9.80;;;;;;;20.93;48.35;94432.97;4790305;29;20921;-78
2022/05/14 04:07:25;;;;;;;11.30;10.40;;;;;;;21.12;48.23;94442.03;4784468;30;20527;-78
2022/05/14 04:09:51;;;;;;;11.10;10.07;;;;;;;21.43;47.74;94444.69;4785367;30;20205;-79
2022/05/14 04:12:17;;;;;;;11.67;10.57;;;;;;;21.10;48.79;94449.47;4802251;29;20225;-78
2022/05/14 04:14:42;;;;;;;13.43;12.10;;;;;;;21.20;48.90;94448.69;4801589;29;20446;-77
2022/05/14 04:17:08;;;;;;;13.13;11.00;;;;;;;21.34;48.68;94451.59;4802222;29;20254;-78
2022/05/14 04:19:33;;;;;;;12.50;11.33;;;;;;;21.16;49.04;94453.75;4790977;29;20229;-78
2022/05/14 04:21:59;;;;;;;12.30;10.97;;;;;;;21.61;47.93;94460.16;4783462;29;20206;-78
2022/05/14 04:24:24;;;;;;;11.47;10.07;;;;;;;21.76;47.11;94456.69;4797748;30;20198;-79
2022/05/14 04:26:50;;;;;;;10.70;9.90;;;;;;;21.68;47.19;94453.75;4789440;29;20237;-78
2022/05/14 04:29:15;;;;;;;12.70;11.53;;;;;;;21.67;47.48;94462.81;4799472;30;20201;-79
2022/05/14 04:31:41;;;;;;;12.20;11.03;;;;;;;22.05;46.39;94463.28;4784643;29;20210;-78
2022/05/14 04:34:06;;;;;;;11.80;10.83;;;;;;;21.64;47.33;94472.94;4791022;29;20221;-79
2022/05/14 04:36:32;;;;;;;12.23;11.07;;;;;;;21.70;47.05;94478.25;4796072;30;20213;-78
2022/05/14 04:38:58;;;;;;;14.27;13.00;;;;;;;21.60;47.60;94479.06;4800105;29;20214;-77
2022/05/14 04:41:25;;;;;;;13.90;12.50;;;;;;;21.83;47.13;94477.69;4801296;29;20241;-79
2022/05/14 04:43:51;;;;;;;12.93;11.47;;;;;;;21.91;47.37;94481.69;4795730;29;20264;-79
2022/05/14 04:46:17;;;;;;;14.27;13.07;;;;;;;21.90;47.22;94486.22;4785310;30;20471;-80
2022/05/14 04:48:42;;;;;;;16.90;13.10;;;;;;;22.02;46.95;94486.75;4784363;29;20205;-79
2022/05/14 04:51:08;;;;;;;13.50;12.27;;;;;;;22.25;46.31;94487.22;4783368;29;20249;-78
2022/05/14 04:53:33;;;;;;;12.17;11.07;;;;;;;22.07;46.42;94482.47;4783684;30;20386;-79
2022/05/14 04:55:59;;;;;;;17.73;12.57;;;;;;;21.88;46.77;94484.91;4781965;30;20293;-79
2022/05/14 04:58:24;;;;;;;12.33;11.20;;;;;;;21.29;48.23;94484.38;4784053;30;20285;-78
2022/05/14 05:00:49;;;;;;;14.33;12.90;;;;;;;21.60;47.71;94493.16;4767339;30;20222;-77
2022/05/14 05:03:19;;;;;;;13.57;12.40;;;;;;;21.24;48.50;94487.81;4794867;30;20197;-79
2022/05/14 05:05:50;;;;;;;14.13;13.00;;;;;;;21.86;47.12;94493.16;4787296;29;20348;-79
2022/05/14 05:08:16;;;;;;;15.30;12.73;;;;;;;22.17;46.69;94493.09;4785477;29;20534;-78
2022/05/14 05:10:42;;;;;;;16.20;14.77;;;;;;;22.16;46.52;94491.50;4797674;30;20428;-78
2022/05/14 05:13:11;;;;;;;13.50;12.30;;;;;;;22.51;45.53;94492.47;4792883;29;20459;-79
2022/05/14 05:15:36;;;;;;;13.77;12.67;;;;;;;22.37;45.69;94495.72;4793040;29;20436;-79
2022/05/14 05:18:01;;;;;;;18.40;12.80;;;;;;;22.02;45.65;94497.41;4797883;29;20438;-79
2022/05/14 05:20:27;;;;;;;16.00;12.90;;;;;;;22.22;45.83;94495.75;4800831;29;20213;-79
2022/05/14 05:22:52;;;;;;;13.93;12.20;;;;;;;21.99;46.27;94497.94;4781245;30;20303;-79
2022/05/14 05:25:18;;;;;;;18.70;12.87;;;;;;;21.99;46.64;94499.81;4793603;29;20635;-78
2022/05/14 05:27:44;;;;;;;18.67;12.43;;;;;;;22.44;45.75;94492.75;4795025;29;20278;-78
2022/05/14 05:30:10;;;;;;;14.37;12.93;;;;;;;22.89;45.38;94495.50;4797481;29;20202;-79
2022/05/14 05:32:36;;;;;;;15.60;13.90;;;;;;;23.33;44.33;94508.06;4797412;29;20187;-78
2022/05/14 05:35:01;;;;;;;16.10;14.00;;;;;;;23.26;44.60;94508.41;4779850;30;20530;-79
2022/05/14 05:37:26;;;;;;;19.23;12.73;;;;;;;23.64;43.57;94502.50;4798106;30;20265;-79
2022/05/14 05:39:52;;;;;;;14.23;12.73;;;;;;;23.59;43.41;94514.03;4796773;29;20748;-78
2022/05/14 05:42:18;;;;;;;15.60;14.10;;;;;;;23.36;44.48;94512.88;4781689;29;20205;-79
2022/05/14 05:44:43;;;;;;;15.53;14.03;;;;;;;23.43;44.47;94516.03;4794587;30;20878;-79
2022/05/14 05:47:09;;;;;;;16.27;14.63;;;;;;;23.67;44.19;94508.06;4778450;30;20216;-78
2022/05/14 05:49:37;;;;;;;15.00;13.60;;;;;;;24.19;43.53;94508.44;4782208;30;20198;-78
2022/05/14 05:52:02;;;;;;;15.70;14.30;;;;;;;24.98;42.18;94501.91;4785589;29;20200;-78
2022/05/14 05:57:12;;;;;;;14.50;12.33;;;;;;;23.99;43.79;94503.31;4794179;29;20212;-78
2022/05/14 05:59:37;;;;;;;12.47;11.07;;;;;;;23.69;44.99;94511.25;4787248;29;20471;-79
2022/05/14 06:02:03;;;;;;;14.77;13.27;;;;;;;24.05;44.30;94502.16;4786056;29;20212;-79
2022/05/14 06:04:29;;;;;;;14.03;11.70;;;;;;;23.89;44.90;94504.19;4799333;29;20221;-78
2022/05/14 06:06:54;;;;;;;20.23;13.20;;;;;;;24.66;43.65;94508.75;4799509;29;20201;-78
2022/05/14 06:09:22;;;;;;;15.03;13.07;;;;;;;25.20;42.58;94509.41;4782700;29;20202;-79
2022/05/14 06:11:50;;;;;;;25.17;12.40;;;;;;;25.07;42.95;94508.22;4783409;30;20203;-78
2022/05/14 06:14:16;;;;;;;31.07;14.40;;;;;;;24.38;44.34;94505.03;4798845;29;20447;-79
2022/05/14 06:16:42;;;;;;;27.63;12.47;;;;;;;24.35;44.73;94512.53;4798045;29;20451;-79
2022/05/14 06:19:09;;;;;;;22.70;13.23;;;;;;;24.74;43.96;94508.91;4781878;30;20539;-78
2022/05/14 06:21:37;;;;;;;14.33;12.93;;;;;;;24.84;43.85;94515.22;4780107;30;20553;-78
2022/05/14 06:24:03;;;;;;;12.37;11.23;;;;;;;25.25;43.23;94515.50;4779768;30;20511;-79
2022/05/14 06:26:29;;;;;;;14.33;10.73;;;;;;;24.90;44.51;94511.41;4789076;29;20839;-78
2022/05/14 06:28:54;;;;;;;11.40;10.37;;;;;;;25.31;43.13;94513.56;4799451;30;20435;-79
2022/05/14 06:31:21;;;;;;;10.80;9.90;;;;;;;25.23;43.67;94508.81;4795448;29;20193;-79
2022/05/14 06:33:48;;;;;;;18.80;11.00;;;;;;;25.30;43.90;94517.31;4799635;30;20255;-78
2022/05/14 06:36:14;;;;;;;20.93;10.80;;;;;;;25.71;42.40;94517.47;4798977;29;20454;-79
2022/05/14 06:38:40;;;;;;;21.53;11.47;;;;;;;25.63;42.71;94528.06;4797720;29;20462;-79
2022/05/14 06:41:11;;;;;;;13.40;11.10;;;;;;;26.00;41.59;94521.84;4792203;29;20514;-79
2022/05/14 06:43:38;;;;;;;13.50;11.20;;;;;;;25.51;42.35;94526.63;4792060;29;20231;-78
2022/05/14 06:46:03;;;;;;;36.30;13.43;;;;;;;24.80;44.33;94522.25;4782964;30;20447;-78
2022/05/14 06:48:29;;;;;;;12.67;9.67;;;;;;;24.63;44.40;94518.16;4795596;29;20441;-78
2022/05/14 06:50:59;;;;;;;11.30;10.30;;;;;;;24.25;45.69;94522.56;4783559;29;20949;-79
2022/05/14 06:53:24;;;;;;;10.80;9.83;;;;;;;24.79;44.35;94521.44;4798751;29;20451;-79
2022/05/14 06:55:53;;;;;;;26.83;11.90;;;;;;;24.85;44.04;94519.50;4796271;29;20432;-78
2022/05/14 06:58:22;;;;;;;24.70;12.70;;;;;;;24.77;44.29;94526.28;4780244;30;20198;-78
2022/05/14 07:00:49;;;;;;;16.93;11.50;;;;;;;24.98;43.75;94518.78;4781202;29;20551;-78
2022/05/14 07:08:48;;;;;;;9.83;8.90;;;;;;;24.99;43.16;94517.69;4800451;29;20449;-78
2022/05/14 07:11:13;;;;;;;8.27;7.57;;;;;;;25.12;42.68;94514.31;4798351;30;20483;-79
2022/05/14 07:13:39;;;;;;;15.33;9.73;;;;;;;25.25;43.26;94522.72;4784453;29;20198;-78
2022/05/14 07:16:05;;;;;;;11.23;10.13;;;;;;;25.78;42.01;94530.53;4786993;30;20198;-78
2022/05/14 07:18:32;;;;;;;12.73;10.07;;;;;;;25.72;42.16;94531.66;4783126;30;20201;-79
2022/05/14 07:20:58;;;;;;;15.17;13.87;;;;;;;26.18;41.10;94522.91;4791482;29;20482;-79
2022/05/14 07:23:23;;;;;;;16.13;11.17;;;;;;;25.61;42.40;94535.59;4785283;29;20443;-80
2022/05/14 07:25:49;;;;;;;10.80;9.87;;;;;;;25.61;41.73;94533.72;4786470;29;20439;-78
2022/05/14 07:28:15;;;;;;;11.50;10.60;;;;;;;26.53;40.05;94544.78;4788197;29;20209;-79
2022/05/14 07:30:40;;;;;;;10.40;9.60;;;;;;;25.69;41.83;94537.63;4789035;29;20209;-79
2022/05/14 07:33:05;;;;;;;18.20;16.40;;;;;;;26.34;40.84;94538.72;4787186;29;20203;-79
2022/05/14 07:35:33;;;;;;;11.77;10.87;;;;;;;26.35;40.52;94535.75;4784527;29;20281;-79
2022/05/14 07:38:02;;;;;;;14.43;11.50;;;;;;;26.37;40.81;94540.78;4768711;30;20647;-79
2022/05/14 07:40:31;;;;;;;10.67;9.10;;;;;;;26.20;41.10;94536.81;4785403;30;20498;-78
2022/05/14 07:43:15;;;;;;;10.27;9.50;;;;;;;26.17;40.91;94537.38;4803009;29;20434;-79
2022/05/14 07:45:44;;;;;;;14.30;11.17;;;;;;;25.76;42.26;94550.66;4802415;29;20431;-79
2022/05/14 07:48:16;;;;;;;12.47;11.07;;;;;;;26.48;40.41;94553.75;4793229;29;20454;-79
2022/05/14 07:50:42;;;;;;;12.20;10.90;;;;;;;26.55;40.81;94547.97;4795423;30;20449;-79
2022/05/14 07:53:08;;;;;;;12.13;9.90;;;;;;;26.51;40.88;94552.34;4795457;29;20583;-79
2022/05/14 07:55:34;;;;;;;13.73;10.97;;;;;;;26.95;39.87;94548.28;4783885;30;20794;-79
2022/05/14 07:58:00;;;;;;;20.13;13.67;;;;;;;27.74;38.50;94549.81;4787084;29;20203;-79
2022/05/14 08:00:26;;;;;;;12.43;9.43;;;;;;;27.23;39.24;94553.63;4794229;30;20463;-79
2022/05/14 08:02:51;;;;;;;30.47;11.63;;;;;;;28.20;37.53;94553.28;4786859;30;20616;-79
2022/05/14 08:05:21;;;;;;;11.03;10.03;;;;;;;28.77;36.50;94553.41;4788116;29;20202;-79
2022/05/14 08:07:50;;;;;;;28.67;10.67;;;;;;;28.27;37.39;94558.22;4784963;29;20195;-79
2022/05/14 08:10:16;;;;;;;16.77;12.07;;;;;;;28.43;36.60;94559.44;4802070;29;20601;-79
2022/05/14 08:12:50;;;;;;;10.03;9.10;;;;;;;28.52;36.94;94554.91;4779689;30;20812;-79
2022/05/14 08:15:16;;;;;;;12.03;10.40;;;;;;;28.85;36.41;94554.53;4791983;30;20945;-79
2022/05/14 08:17:42;;;;;;;10.37;9.20;;;;;;;28.10;37.67;94545.50;4784805;29;20452;-80
2022/05/14 08:20:09;;;;;;;14.53;10.90;;;;;;;28.16;37.45;94550.41;4768557;30;20993;-79
2022/05/14 08:25:18;;;;;;;23.47;12.43;;;;;;;28.31;37.53;94540.38;4790299;29;20450;-79
2022/05/14 08:27:47;;;;;;;11.87;10.67;;;;;;;28.62;37.18;94533.06;4787149;30;20452;-79
2022/05/14 08:30:19;;;;;;;15.73;10.60;;;;;;;27.95;38.71;94533.22;4784414;29;20199;-79
2022/05/14 08:32:45;;;;;;;11.17;10.23;;;;;;;28.26;37.43;94527.81;4799211;29;20439;-79
2022/05/14 08:35:12;;;;;;;10.57;9.53;;;;;;;27.59;39.71;94529.44;4800738;29;21877;-79
2022/05/14 08:37:38;;;;;;;11.17;10.00;;;;;;;27.82;38.74;94535.63;4801027;29;20533;-79
2022/05/14 08:40:06;;;;;;;10.60;9.70;;;;;;;28.44;36.84;94531.41;4789089;29;20491;-79
2022/05/14 08:42:33;;;;;;;11.23;10.00;;;;;;;29.22;36.09;94530.88;4791268;30;20209;-79
2022/05/14 08:44:59;;;;;;;46.47;16.57;;;;;;;29.35;36.02;94527.25;4797240;29;20434;-79
2022/05/14 08:47:40;;;;;;;12.17;10.90;;;;;;;29.63;35.63;94535.00;4788282;30;20499;-79
2022/05/14 08:50:07;;;;;;;37.93;14.80;;;;;;;30.28;34.67;94532.41;4789991;30;20270;-79
2022/05/14 08:52:34;;;;;;;37.13;12.80;;;;;;;30.55;33.47;94526.63;4783604;30;20446;-78
2022/05/14 08:55:04;;;;;;;18.57;12.77;;;;;;;29.82;35.45;94533.94;4790319;29;20506;-78
2022/05/14 08:57:50;;;;;;;25.93;12.33;;;;;;;29.97;34.94;94522.63;4796625;29;20459;-78
2022/05/14 09:00:17;;;;;;;14.43;11.57;;;;;;;29.37;35.66;94527.72;4799273;29;20481;-78
2022/05/14 09:02:52;;;;;;;13.73;9.80;;;;;;;29.10;36.08;94520.69;4797778;30;20446;-79
2022/05/14 09:05:28;;;;;;;18.10;12.03;;;;;;;28.98;36.22;94523.19;4800044;29;21010;-79
2022/05/14 09:07:54;;;;;;;14.10;11.00;;;;;;;29.71;34.96;94526.16;4792659;29;20501;-79
2022/05/14 09:10:31;;;;;;;11.60;10.40;;;;;;;30.96;32.23;94534.41;4781161;30;20535;-78
2022/05/14 09:13:16;;;;;;;12.80;9.90;;;;;;;31.15;32.32;94537.47;4800388;30;20446;-79
2022/05/14 09:15:59;;;;;;;10.20;8.63;;;;;;;31.98;30.87;94541.28;4774077;30;20444;-79
2022/05/14 09:18:33;;;;;;;16.20;14.70;;;;;;;31.27;32.68;94545.66;4799138;29;20518;-80
2022/05/14 09:21:02;;;;;;;13.47;12.07;;;;;;;30.78;33.21;94549.91;4783103;30;20475;-79
2022/05/14 09:23:40;;;;;;;14.00;7.20;;;;;;;30.00;34.59;94538.19;4782686;29;20444;-79
2022/05/14 09:26:39;;;;;;;10.97;9.87;;;;;;;31.55;31.66;94544.38;4784844;30;20448;-79
2022/05/14 09:29:27;;;;;;;9.70;8.70;;;;;;;30.71;32.55;94531.47;4768079;30;20433;-79
2022/05/14 09:32:23;;;;;;;9.00;8.07;;;;;;;30.00;34.14;94537.41;4781894;29;20444;-79
2022/05/14 09:34:49;;;;;;;13.80;8.83;;;;;;;30.44;33.64;94530.78;4782210;30;20501;-79
2022/05/14 09:37:23;;;;;;;9.23;8.43;;;;;;;29.16;35.32;94532.16;4791460;29;20454;-78
2022/05/14 09:39:57;;;;;;;9.03;8.10;;;;;;;28.90;36.17;94537.47;4797487;29;20560;-77
2022/05/14 09:42:45;;;;;;;8.93;8.03;;;;;;;27.84;38.42;94530.72;4781994;30;20442;-79
2022/05/14 09:45:32;;;;;;;9.80;9.00;;;;;;;28.34;37.35;94528.97;4781375;29;20435;-79
2022/05/14 09:48:20;;;;;;;13.63;9.50;;;;;;;27.72;39.29;94535.88;4782172;30;20462;-79
2022/05/14 09:50:56;;;;;;;10.83;9.73;;;;;;;27.84;39.69;94533.41;4782081;30;20408;-79
2022/05/14 09:53:28;;;;;;;10.50;9.53;;;;;;;26.93;41.85;94542.41;4765464;30;20487;-79
2022/05/14 09:56:06;;;;;;;10.90;9.83;;;;;;;27.65;40.20;94538.97;4788653;29;20449;-78
2022/05/14 09:58:34;;;;;;;13.37;8.90;;;;;;;27.61;40.06;94545.28;4780472;29;20464;-78
2022/05/14 10:01:05;;;;;;;10.93;9.87;;;;;;;27.49;40.86;94543.13;4795205;29;20479;-80
2022/05/14 10:03:59;;;;;;;11.33;10.23;;;;;;;27.50;41.79;94547.41;4800210;30;20439;-79
2022/05/14 10:06:34;;;;;;;79.23;16.83;;;;;;;28.16;41.29;94553.13;4780740;30;20444;-79
2022/05/14 10:09:11;;;;;;;25.53;13.53;;;;;;;27.48;42.40;94556.88;4784331;30;20412;-79
2022/05/14 10:11:44;;;;;;;11.63;10.63;;;;;;;27.62;43.40;94561.13;4798808;29;20451;-79
2022/05/14 10:14:34;;;;;;;76.27;16.20;;;;;;;28.92;40.45;94557.59;4777750;29;20443;-80
2022/05/14 10:17:20;;;;;;;16.47;11.87;;;;;;;29.22;40.22;94557.06;4783392;30;20831;-77
2022/05/14 10:20:07;;;;;;;27.43;13.00;;;;;;;30.16;38.27;94554.66;4796111;29;20540;-78
2022/05/14 10:29:24;;;;;;;10.87;9.97;;;;;;;30.80;35.87;94556.56;4785129;29;20532;-79
2022/05/14 10:32:02;;;;;;;11.63;10.47;;;;;;;30.54;36.06;94545.84;4762376;29;20469;-82
2022/05/14 10:34:44;;;;;;;12.10;10.63;;;;;;;30.73;35.86;94537.34;4800412;29;20499;-83
2022/05/14 10:37:28;;;;;;;9.63;8.60;;;;;;;31.77;33.63;94541.34;4812863;29;20436;-78
2022/05/14 10:40:14;;;;;;;17.67;9.90;;;;;;;31.20;34.01;94547.31;4814011;29;20459;-78
2022/05/14 10:42:57;;;;;;;11.37;9.00;;;;;;;28.81;37.49;94546.28;4781443;30;20428;-79
2022/05/14 10:45:32;;;;;;;16.30;8.97;;;;;;;29.04;37.25;94545.41;4790417;29;21024;-78
2022/05/14 10:48:04;;;;;;;8.80;7.37;;;;;;;29.55;36.16;94535.81;4818023;29;20419;-79
2022/05/14 10:50:30;;;;;;;13.23;8.57;;;;;;;29.34;36.18;94533.75;4791571;29;20432;-78
2022/05/14 10:52:58;;;;;;;10.37;8.47;;;;;;;29.15;35.24;94525.16;4781670;30;20470;-79
2022/05/14 10:55:31;;;;;;;23.70;10.83;;;;;;;29.42;34.73;94525.97;4787946;29;20644;-78
2022/05/14 10:58:07;;;;;;;15.13;7.97;;;;;;;29.89;34.01;94529.63;4797135;29;20439;-78
2022/05/14 11:00:38;;;;;;;12.47;8.80;;;;;;;30.51;32.59;94525.69;4787673;30;21021;-79
2022/05/14 11:03:23;;;;;;;14.03;9.53;;;;;;;30.36;34.38;94526.22;4799537;29;20445;-80
2022/05/14 11:06:11;;;;;;;8.30;7.60;;;;;;;30.38;32.84;94526.69;4799883;29;20509;-79
2022/05/14 11:08:41;;;;;;;11.10;9.90;;;;;;;29.62;37.43;94525.34;4797741;29;20504;-79
2022/05/14 11:11:19;;;;;;;10.00;8.50;;;;;;;28.42;38.89;94525.53;4797269;29;20437;-77
2022/05/14 11:14:01;;;;;;;12.77;10.17;;;;;;;28.49;38.88;94520.47;4781649;30;20840;-78
2022/05/14 11:16:38;;;;;;;10.97;9.90;;;;;;;28.57;39.36;94525.16;4784988;29;20452;-80
2022/05/14 11:19:04;;;;;;;11.57;10.63;;;;;;;29.11;38.45;94514.19;4781945;30;20436;-78
2022/05/14 11:21:37;;;;;;;11.30;10.30;;;;;;;28.76;39.68;94518.69;4780829;29;20472;-76
2022/05/14 11:24:03;;;;;;;11.20;10.13;;;;;;;28.77;39.85;94514.91;4797485;29;20490;-77
2022/05/14 11:26:30;;;;;;;11.70;10.77;;;;;;;28.87;39.50;94514.59;4794676;29;20450;-77
2022/05/14 11:29:11;;;;;;;10.43;9.50;;;;;;;29.04;39.08;94513.84;4791206;29;20462;-80
2022/05/14 11:31:40;;;;;;;10.67;9.57;;;;;;;29.04;39.17;94513.84;4781815;30;20805;-83
2022/05/14 11:34:35;;;;;;;9.57;8.90;;;;;;;27.74;40.20;94517.53;4796558;29;20438;-82
2022/05/14 11:37:04;;;;;;;9.93;9.03;;;;;;;28.10;39.97;94508.59;4787142;29;20527;-81
2022/05/14 11:39:36;;;;;;;10.00;9.00;;;;;;;28.49;38.69;94504.31;4765237;30;20440;-78
2022/05/14 11:42:24;;;;;;;10.33;9.33;;;;;;;29.45;36.33;94496.47;4784328;29;20472;-81
2022/05/14 11:44:55;;;;;;;10.70;9.80;;;;;;;30.41;36.00;94496.34;4788744;30;20462;-78
2022/05/14 11:47:32;;;;;;;8.07;7.47;;;;;;;29.26;35.47;94491.41;4783912;29;20992;-79
2022/05/14 11:50:03;;;;;;;8.10;7.30;;;;;;;28.85;35.62;94506.06;4783608;29;20470;-78
2022/05/14 11:52:43;;;;;;;8.67;7.90;;;;;;;29.46;34.91;94494.56;4781321;29;20440;-77
2022/05/14 11:55:18;;;;;;;9.40;7.53;;;;;;;29.02;34.58;94508.00;4794247;29;20424;-79
2022/05/14 11:57:58;;;;;;;6.20;5.70;;;;;;;29.11;33.92;94499.94;4800455;29;20444;-79
2022/05/14 12:00:30;;;;;;;7.03;6.40;;;;;;;29.08;33.98;94503.25;4790028;29;20465;-84